sensor_id;sensor_type;location;lat;lon;timestamp;pressure;altitude;pressure_sealevel;temperature;humidity
27864;BME280;15980;51.092;13.916;2023-02-16T00:04:57;99529.81;;;-0.42;93.93
27864;BME280;15980;51.092;13.916;2023-02-16T00:14:58;99525.56;;;-0.54;94.02
27864;BME280;15980;51.092;13.916;2023-02-16T00:24:58;99518.88;;;-0.52;94.66
27864;BME280;15980;51.092;13.916;2023-02-16T00:34:58;99537.16;;;-0.37;95.55
27864;BME280;15980;51.092;13.916;2023-02-16T00:44:59;99521.03;;;-0.32;95.17
27864;BME280;15980;51.092;13.916;2023-02-16T00:55:01;99505.19;;;-0.28;95.81
27864;BME280;15980;51.092;13.916;2023-02-16T01:05:01;99513.97;;;-0.16;95.57
27864;BME280;15980;51.092;13.916;2023-02-16T01:15:02;99511.00;;;-0.15;95.46
27864;BME280;15980;51.092;13.916;2023-02-16T01:25:02;99506.94;;;-0.17;94.81
27864;BME280;15980;51.092;13.916;2023-02-16T01:35:03;99512.19;;;-0.06;95.15
27864;BME280;15980;51.092;13.916;2023-02-16T01:45:08;99508.13;;;-0.08;95.00
27864;BME280;15980;51.092;13.916;2023-02-16T02:05:26;99493.06;;;-0.26;93.74
27864;BME280;15980;51.092;13.916;2023-02-16T02:15:29;99490.50;;;-0.38;93.95
27864;BME280;15980;51.092;13.916;2023-02-16T02:46:30;99477.38;;;-0.51;94.34
27864;BME280;15980;51.092;13.916;2023-02-16T02:56:31;99474.41;;;-0.49;94.65
27864;BME280;15980;51.092;13.916;2023-02-16T03:06:35;99476.16;;;-0.43;94.39
27864;BME280;15980;51.092;13.916;2023-02-16T03:16:43;99478.75;;;-0.48;93.13
27864;BME280;15980;51.092;13.916;2023-02-16T03:26:45;99476.28;;;-0.33;94.62
27864;BME280;15980;51.092;13.916;2023-02-16T03:36:53;99485.03;;;-0.43;93.92
27864;BME280;15980;51.092;13.916;2023-02-16T03:46:54;99494.72;;;-0.64;93.10
27864;BME280;15980;51.092;13.916;2023-02-16T03:56:54;99491.63;;;-0.72;93.66
27864;BME280;15980;51.092;13.916;2023-02-16T04:06:54;99486.09;;;-0.82;94.02
27864;BME280;15980;51.092;13.916;2023-02-16T04:16:55;99480.59;;;-0.87;93.21
27864;BME280;15980;51.092;13.916;2023-02-16T04:26:55;99477.75;;;-0.98;94.06
27864;BME280;15980;51.092;13.916;2023-02-16T04:36:55;99478.75;;;-1.04;93.15
27864;BME280;15980;51.092;13.916;2023-02-16T04:46:56;99474.59;;;-1.11;93.83
27864;BME280;15980;51.092;13.916;2023-02-16T04:56:56;99469.69;;;-1.14;93.47
27864;BME280;15980;51.092;13.916;2023-02-16T05:06:56;99472.81;;;-1.22;93.78
27864;BME280;15980;51.092;13.916;2023-02-16T05:16:57;99482.09;;;-1.30;93.69
27864;BME280;15980;51.092;13.916;2023-02-16T05:26:57;99470.34;;;-1.24;95.02
27864;BME280;15980;51.092;13.916;2023-02-16T05:36:57;99481.53;;;-1.15;94.87
27864;BME280;15980;51.092;13.916;2023-02-16T05:46:57;99487.72;;;-1.15;94.64
27864;BME280;15980;51.092;13.916;2023-02-16T05:56:58;99491.81;;;-1.12;94.92
27864;BME280;15980;51.092;13.916;2023-02-16T06:06:58;99500.94;;;-1.13;94.50
27864;BME280;15980;51.092;13.916;2023-02-16T06:16:59;99492.94;;;-1.08;94.93
27864;BME280;15980;51.092;13.916;2023-02-16T06:26:59;99485.34;;;-0.95;95.43
27864;BME280;15980;51.092;13.916;2023-02-16T06:36:59;99497.13;;;-0.84;95.28
27864;BME280;15980;51.092;13.916;2023-02-16T06:46:59;99492.88;;;-0.80;95.23
27864;BME280;15980;51.092;13.916;2023-02-16T06:57:00;99498.97;;;-0.68;95.04
27864;BME280;15980;51.092;13.916;2023-02-16T07:07:00;99497.53;;;-0.37;95.04
27864;BME280;15980;51.092;13.916;2023-02-16T07:17:00;99491.56;;;-0.17;94.80
27864;BME280;15980;51.092;13.916;2023-02-16T07:27:01;99480.66;;;-0.05;94.83
27864;BME280;15980;51.092;13.916;2023-02-16T07:37:01;99477.28;;;0.05;95.05
27864;BME280;15980;51.092;13.916;2023-02-16T07:47:01;99486.66;;;0.24;94.79
27864;BME280;15980;51.092;13.916;2023-02-16T07:57:02;99504.22;;;0.48;93.66
27864;BME280;15980;51.092;13.916;2023-02-16T08:07:02;99497.06;;;0.64;94.03
27864;BME280;15980;51.092;13.916;2023-02-16T08:17:03;99506.66;;;0.82;93.49
27864;BME280;15980;51.092;13.916;2023-02-16T08:27:05;99510.19;;;1.14;93.06
27864;BME280;15980;51.092;13.916;2023-02-16T08:37:05;99490.19;;;1.52;92.64
27864;BME280;15980;51.092;13.916;2023-02-16T08:47:06;99492.84;;;1.95;91.35
27864;BME280;15980;51.092;13.916;2023-02-16T08:57:06;99501.91;;;2.36;90.55
27864;BME280;15980;51.092;13.916;2023-02-16T09:07:06;99491.44;;;2.80;89.04
27864;BME280;15980;51.092;13.916;2023-02-16T09:17:06;99474.91;;;3.17;87.30
27864;BME280;15980;51.092;13.916;2023-02-16T09:27:07;99477.81;;;3.66;85.79
27864;BME280;15980;51.092;13.916;2023-02-16T09:37:07;99485.13;;;4.35;84.12
27864;BME280;15980;51.092;13.916;2023-02-16T09:47:23;99466.25;;;4.93;81.15
27864;BME280;15980;51.092;13.916;2023-02-16T10:18:05;99465.63;;;5.64;79.36
27864;BME280;15980;51.092;13.916;2023-02-16T10:28:18;99461.97;;;5.74;79.72
27864;BME280;15980;51.092;13.916;2023-02-16T10:38:33;99477.59;;;5.87;79.22
27864;BME280;15980;51.092;13.916;2023-02-16T10:48:36;99452.22;;;6.16;79.80
27864;BME280;15980;51.092;13.916;2023-02-16T10:58:38;99435.31;;;6.56;79.76
27864;BME280;15980;51.092;13.916;2023-02-16T11:09:05;99436.34;;;6.93;77.95
27864;BME280;15980;51.092;13.916;2023-02-16T11:19:16;99432.56;;;7.81;68.81
27864;BME280;15980;51.092;13.916;2023-02-16T11:29:18;99432.94;;;8.30;66.92
27864;BME280;15980;51.092;13.916;2023-02-16T11:39:24;99433.88;;;8.61;64.11
27864;BME280;15980;51.092;13.916;2023-02-16T11:49:32;99416.97;;;8.81;64.65
27864;BME280;15980;51.092;13.916;2023-02-16T11:59:37;99401.25;;;8.87;65.08
27864;BME280;15980;51.092;13.916;2023-02-16T12:09:53;99399.59;;;9.08;64.54
27864;BME280;15980;51.092;13.916;2023-02-16T12:30:46;99368.72;;;9.48;62.76
27864;BME280;15980;51.092;13.916;2023-02-16T12:51:20;99363.19;;;9.79;61.00
27864;BME280;15980;51.092;13.916;2023-02-16T13:01:27;99359.81;;;9.90;61.39
27864;BME280;15980;51.092;13.916;2023-02-16T13:22:05;99332.94;;;10.18;59.90
27864;BME280;15980;51.092;13.916;2023-02-16T13:32:32;99334.56;;;10.36;60.58
27864;BME280;15980;51.092;13.916;2023-02-16T13:52:52;99324.59;;;10.41;58.97
27864;BME280;15980;51.092;13.916;2023-02-16T14:02:59;99322.78;;;10.36;63.52
27864;BME280;15980;51.092;13.916;2023-02-16T14:13:10;99337.28;;;10.02;63.90
27864;BME280;15980;51.092;13.916;2023-02-16T14:23:26;99333.84;;;9.79;66.04
27864;BME280;15980;51.092;13.916;2023-02-16T14:33:44;99335.28;;;9.28;67.29
27864;BME280;15980;51.092;13.916;2023-02-16T14:43:48;99340.31;;;8.73;69.83
27864;BME280;15980;51.092;13.916;2023-02-16T14:54:20;99339.25;;;8.38;70.77
27864;BME280;15980;51.092;13.916;2023-02-16T15:04:28;99338.00;;;8.08;71.11
27864;BME280;15980;51.092;13.916;2023-02-16T15:14:30;99343.50;;;7.94;71.10
27864;BME280;15980;51.092;13.916;2023-02-16T15:24:34;99340.88;;;7.75;71.43
27864;BME280;15980;51.092;13.916;2023-02-16T15:34:34;99314.81;;;7.28;72.70
27864;BME280;15980;51.092;13.916;2023-02-16T15:44:35;99311.84;;;6.83;74.55
27864;BME280;15980;51.092;13.916;2023-02-16T15:54:36;99327.53;;;6.26;74.87
27864;BME280;15980;51.092;13.916;2023-02-16T16:04:40;99317.03;;;5.58;76.04
27864;BME280;15980;51.092;13.916;2023-02-16T16:14:43;99326.81;;;5.12;77.78
27864;BME280;15980;51.092;13.916;2023-02-16T16:24:47;99324.66;;;4.56;79.29
27864;BME280;15980;51.092;13.916;2023-02-16T16:34:48;99332.84;;;4.17;79.65
27864;BME280;15980;51.092;13.916;2023-02-16T16:54:54;99327.19;;;3.69;81.58
27864;BME280;15980;51.092;13.916;2023-02-16T17:04:54;99330.81;;;3.44;81.73
27864;BME280;15980;51.092;13.916;2023-02-16T17:14:55;99317.28;;;3.34;81.74
27864;BME280;15980;51.092;13.916;2023-02-16T17:24:55;99321.66;;;3.30;82.34
27864;BME280;15980;51.092;13.916;2023-02-16T17:34:55;99319.78;;;3.79;81.24
27864;BME280;15980;51.092;13.916;2023-02-16T17:44:55;99310.75;;;4.28;78.88
27864;BME280;15980;51.092;13.916;2023-02-16T17:54:56;99297.03;;;5.01;75.00
27864;BME280;15980;51.092;13.916;2023-02-16T18:04:56;99291.75;;;5.10;74.29
27864;BME280;15980;51.092;13.916;2023-02-16T18:14:56;99304.91;;;5.03;74.62
27864;BME280;15980;51.092;13.916;2023-02-16T18:24:57;99308.94;;;4.82;74.92
27864;BME280;15980;51.092;13.916;2023-02-16T18:34:57;99316.81;;;4.83;74.55
27864;BME280;15980;51.092;13.916;2023-02-16T18:44:57;99317.81;;;4.63;75.40
27864;BME280;15980;51.092;13.916;2023-02-16T18:54:58;99317.50;;;4.36;75.80
27864;BME280;15980;51.092;13.916;2023-02-16T19:04:58;99314.22;;;4.39;74.62
27864;BME280;15980;51.092;13.916;2023-02-16T19:14:58;99327.84;;;4.63;72.55
27864;BME280;15980;51.092;13.916;2023-02-16T19:24:58;99354.38;;;4.47;72.68
27864;BME280;15980;51.092;13.916;2023-02-16T19:34:59;99330.69;;;4.14;74.48
27864;BME280;15980;51.092;13.916;2023-02-16T19:44:59;99334.66;;;3.87;75.60
27864;BME280;15980;51.092;13.916;2023-02-16T19:54:59;99311.41;;;4.15;74.71
27864;BME280;15980;51.092;13.916;2023-02-16T20:05:00;99311.13;;;4.51;74.80
27864;BME280;15980;51.092;13.916;2023-02-16T20:15:00;99316.31;;;4.76;74.01
27864;BME280;15980;51.092;13.916;2023-02-16T20:25:00;99326.00;;;4.87;74.88
27864;BME280;15980;51.092;13.916;2023-02-16T20:35:04;99319.13;;;5.19;75.51
27864;BME280;15980;51.092;13.916;2023-02-16T20:45:05;99318.84;;;5.44;75.59
27864;BME280;15980;51.092;13.916;2023-02-16T20:55:07;99317.94;;;5.73;76.55
27864;BME280;15980;51.092;13.916;2023-02-16T21:05:08;99297.50;;;5.94;77.44
27864;BME280;15980;51.092;13.916;2023-02-16T21:15:09;99300.25;;;6.13;77.68
27864;BME280;15980;51.092;13.916;2023-02-16T21:25:09;99287.03;;;6.20;77.69
27864;BME280;15980;51.092;13.916;2023-02-16T21:35:09;99277.16;;;6.24;78.55
27864;BME280;15980;51.092;13.916;2023-02-16T21:45:10;99271.41;;;6.25;78.17
27864;BME280;15980;51.092;13.916;2023-02-16T21:55:10;99268.81;;;6.34;78.79
27864;BME280;15980;51.092;13.916;2023-02-16T22:05:11;99249.63;;;6.25;79.13
27864;BME280;15980;51.092;13.916;2023-02-16T22:15:11;99234.03;;;6.12;80.62
27864;BME280;15980;51.092;13.916;2023-02-16T22:25:12;99244.25;;;6.20;80.52
27864;BME280;15980;51.092;13.916;2023-02-16T22:35:12;99233.72;;;6.46;80.49
27864;BME280;15980;51.092;13.916;2023-02-16T22:45:13;99233.66;;;6.92;79.14
27864;BME280;15980;51.092;13.916;2023-02-16T22:55:13;99227.00;;;7.12;78.43
27864;BME280;15980;51.092;13.916;2023-02-16T23:05:14;99211.81;;;7.20;77.80
27864;BME280;15980;51.092;13.916;2023-02-16T23:15:14;99185.47;;;7.15;78.37
27864;BME280;15980;51.092;13.916;2023-02-16T23:25:15;99178.00;;;7.07;78.61
27864;BME280;15980;51.092;13.916;2023-02-16T23:35:15;99167.38;;;6.92;79.02
27864;BME280;15980;51.092;13.916;2023-02-16T23:45:15;99170.22;;;6.87;79.11
27864;BME280;15980;51.092;13.916;2023-02-16T23:55:16;99149.72;;;6.76;79.60
